createdAt,value
2018-02-21T00:01:41.845Z,30.73
2018-02-21T00:05:05.890Z,33.77
2018-02-21T00:08:29.215Z,35.53
2018-02-21T00:11:52.499Z,33.17
2018-02-21T00:15:16.586Z,30.73
2018-02-21T00:18:39.904Z,31.87
2018-02-21T00:22:03.217Z,36.83
2018-02-21T00:25:26.484Z,32.03
2018-02-21T00:28:49.818Z,31.97
2018-02-21T00:32:13.888Z,34.77
2018-02-21T00:35:37.153Z,39.87
2018-02-21T00:39:00.533Z,36.77
2018-02-21T00:42:23.868Z,39.17
2018-02-21T00:45:47.921Z,34.73
2018-02-21T00:49:11.219Z,37.97
2018-02-21T00:52:35.305Z,33.10
2018-02-21T00:55:59.432Z,41.03
2018-02-21T00:59:22.748Z,35.43
2018-02-21T01:02:45.997Z,38.03
2018-02-21T01:06:09.257Z,35.13
2018-02-21T01:09:32.593Z,37.83
2018-02-21T01:12:55.875Z,33.50
2018-02-21T01:16:20.010Z,36.77
2018-02-21T01:19:43.328Z,39.30
2018-02-21T01:23:06.600Z,35.97
2018-02-21T01:26:29.967Z,37.87
2018-02-21T01:29:53.233Z,37.80
2018-02-21T01:33:16.608Z,38.40
2018-02-21T01:36:39.887Z,34.77
2018-02-21T01:40:04.014Z,33.27
2018-02-21T01:43:27.286Z,35.70
2018-02-21T01:46:50.568Z,37.63
2018-02-21T01:50:14.622Z,35.83
2018-02-21T01:53:37.884Z,37.83
2018-02-21T01:57:01.162Z,39.10
2018-02-21T02:00:24.492Z,36.60
2018-02-21T02:03:47.854Z,34.43
2018-02-21T02:07:11.125Z,37.80
2018-02-21T02:10:34.395Z,36.00
2018-02-21T02:13:57.694Z,37.30
2018-02-21T02:17:21.032Z,33.80
2018-02-21T02:20:44.351Z,37.27
2018-02-21T02:24:07.685Z,36.77
2018-02-21T02:27:31.808Z,33.63
2018-02-21T02:30:55.141Z,36.40
2018-02-21T02:34:19.269Z,36.13
2018-02-21T02:37:42.538Z,33.83
2018-02-21T02:41:06.671Z,34.60
2018-02-21T02:44:29.992Z,36.33
2018-02-21T02:47:53.259Z,36.43
2018-02-21T02:51:16.532Z,37.10
2018-02-21T02:54:40.664Z,37.83
2018-02-21T02:58:04.036Z,34.13
2018-02-21T03:01:27.354Z,40.03
2018-02-21T03:04:50.724Z,38.37
2018-02-21T03:08:14.004Z,35.97
2018-02-21T03:11:38.078Z,36.63
2018-02-21T03:15:01.348Z,35.83
2018-02-21T03:18:25.384Z,39.47
2018-02-21T03:21:48.702Z,35.27
2018-02-21T03:25:11.989Z,39.87
2018-02-21T03:28:36.078Z,41.87
2018-02-21T03:32:00.119Z,37.67
2018-02-21T03:35:23.393Z,32.90
2018-02-21T03:38:46.729Z,34.13
2018-02-21T03:42:10.012Z,37.00
2018-02-21T03:45:34.034Z,37.80
2018-02-21T03:48:58.133Z,38.77
2018-02-21T03:52:22.163Z,37.47
2018-02-21T03:55:46.201Z,38.33
2018-02-21T03:59:10.297Z,41.70
2018-02-21T04:02:34.416Z,39.37
2018-02-21T04:05:57.723Z,42.73
2018-02-21T04:09:20.990Z,41.10
2018-02-21T04:12:44.270Z,41.07
2018-02-21T04:16:07.551Z,45.87
2018-02-21T04:19:31.591Z,44.47
2018-02-21T04:22:55.621Z,47.80
2018-02-21T04:26:19.751Z,41.63
2018-02-21T04:29:43.035Z,33.67
2018-02-21T04:33:07.161Z,42.60
2018-02-21T04:36:30.515Z,38.63
2018-02-21T04:39:53.847Z,38.30
2018-02-21T04:43:17.116Z,40.00
2018-02-21T04:46:41.168Z,38.70
2018-02-21T04:50:05.206Z,37.30
2018-02-21T04:53:29.326Z,33.87
2018-02-21T04:56:55.993Z,35.53
2018-02-21T05:00:23.344Z,32.80
2018-02-21T05:03:47.428Z,33.10
2018-02-21T05:07:10.796Z,33.20
2018-02-21T05:10:34.068Z,34.57
2018-02-21T05:13:58.200Z,32.47
2018-02-21T05:17:21.519Z,32.80
2018-02-21T05:20:44.839Z,34.80
2018-02-21T05:24:08.216Z,31.17
2018-02-21T05:27:32.341Z,31.13
2018-02-21T05:30:55.672Z,32.30
2018-02-21T05:34:19.759Z,34.10
2018-02-21T05:37:43.889Z,31.80
2018-02-21T05:41:07.200Z,35.50
2018-02-21T05:44:30.578Z,35.77
2018-02-21T05:47:53.964Z,35.00
2018-02-21T05:51:18.068Z,31.87
2018-02-21T05:54:41.337Z,32.07
2018-02-21T05:58:04.721Z,30.47
2018-02-21T06:01:27.993Z,34.77
2018-02-21T06:04:51.426Z,31.63
2018-02-21T06:08:15.500Z,31.10
2018-02-21T06:11:38.871Z,31.17
2018-02-21T06:15:02.242Z,30.40
2018-02-21T06:18:25.609Z,32.27
2018-02-21T06:21:48.891Z,29.47
2018-02-21T06:25:12.981Z,33.97
2018-02-21T06:28:37.070Z,29.97
2018-02-21T06:32:01.153Z,33.63
2018-02-21T06:35:25.334Z,32.17
2018-02-21T06:38:49.436Z,27.10
2018-02-21T06:42:13.477Z,29.87
2018-02-21T06:45:37.854Z,32.67
2018-02-21T06:49:02.166Z,30.60
2018-02-21T06:52:26.408Z,30.53
2018-02-21T06:55:49.849Z,33.13
2018-02-21T06:59:13.216Z,34.23
2018-02-21T07:02:36.598Z,28.77
2018-02-21T07:05:59.923Z,36.57
2018-02-21T07:09:24.253Z,33.80
2018-02-21T07:12:47.468Z,30.43
2018-02-21T07:16:10.914Z,34.93
2018-02-21T07:19:35.076Z,34.90
2018-02-21T07:22:58.472Z,35.30
2018-02-21T07:26:22.767Z,38.87
2018-02-21T07:29:46.244Z,37.57
2018-02-21T07:33:09.592Z,45.33
2018-02-21T07:36:33.682Z,37.40
2018-02-21T07:39:57.871Z,38.23
2018-02-21T07:43:21.965Z,44.23
2018-02-21T07:46:46.094Z,43.20
2018-02-21T07:50:10.148Z,39.33
2018-02-21T07:53:34.325Z,40.10
2018-02-21T07:56:58.410Z,37.30
2018-02-21T08:00:22.472Z,37.07
2018-02-21T08:03:45.906Z,38.10
2018-02-21T08:07:09.210Z,40.87
2018-02-21T08:10:32.516Z,39.70
2018-02-21T08:13:55.831Z,39.73
2018-02-21T08:17:19.934Z,38.60
2018-02-21T08:20:43.278Z,41.87
2018-02-21T08:24:06.568Z,42.30
2018-02-21T08:27:29.903Z,39.27
2018-02-21T08:30:53.945Z,39.93
2018-02-21T08:34:19.119Z,42.33
2018-02-21T08:37:43.212Z,44.97
2018-02-21T08:41:07.327Z,41.87
2018-02-21T08:44:30.681Z,39.73
2018-02-21T08:47:54.020Z,35.60
2018-02-21T08:51:18.084Z,38.90
2018-02-21T08:54:41.478Z,44.37
2018-02-21T08:58:04.775Z,42.73
2018-02-21T09:01:28.096Z,43.33
2018-02-21T09:04:51.374Z,43.37
2018-02-21T09:08:14.648Z,41.73
2018-02-21T09:11:37.948Z,39.97
2018-02-21T09:15:01.285Z,43.57
2018-02-21T09:18:24.556Z,43.00
2018-02-21T09:21:47.914Z,41.27
2018-02-21T09:25:12.769Z,44.43
2018-02-21T09:28:36.057Z,42.87
2018-02-21T09:32:00.121Z,42.07
2018-02-21T09:35:23.436Z,40.33
2018-02-21T09:38:46.749Z,42.70
2018-02-21T09:42:10.774Z,39.10
2018-02-21T09:45:34.882Z,37.70
2018-02-21T09:48:58.143Z,37.93
2018-02-21T09:52:21.440Z,44.13
2018-02-21T09:55:45.482Z,43.07
2018-02-21T09:59:09.522Z,44.10
2018-02-21T10:02:33.578Z,37.27
2018-02-21T10:05:56.920Z,41.57
2018-02-21T10:09:21.013Z,39.10
2018-02-21T10:12:45.058Z,45.37
2018-02-21T10:16:09.183Z,37.77
2018-02-21T10:19:33.262Z,45.37
2018-02-21T10:22:56.528Z,38.63
2018-02-21T10:26:19.902Z,36.60
2018-02-21T10:29:43.166Z,41.20
2018-02-21T10:33:06.939Z,37.13
2018-02-21T10:36:30.265Z,41.07
2018-02-21T10:39:53.985Z,36.47
2018-02-21T10:43:18.751Z,34.10
2018-02-21T10:46:43.063Z,39.43
2018-02-21T10:50:07.291Z,36.73
2018-02-21T10:53:31.581Z,38.40
2018-02-21T10:56:55.803Z,35.07
2018-02-21T11:00:24.775Z,36.00
2018-02-21T11:03:48.882Z,35.00
2018-02-21T11:07:12.182Z,31.87
2018-02-21T11:10:36.345Z,36.23
2018-02-21T11:13:59.853Z,39.77
2018-02-21T11:17:23.137Z,34.03
2018-02-21T11:20:47.269Z,34.40
2018-02-21T11:24:10.542Z,32.67
2018-02-21T11:27:33.879Z,32.50
2018-02-21T11:30:57.245Z,36.30
2018-02-21T11:34:20.511Z,33.73
2018-02-21T11:37:44.600Z,32.90
2018-02-21T11:41:07.868Z,33.00
2018-02-21T11:44:31.180Z,35.17
2018-02-21T11:47:54.447Z,32.37
2018-02-21T11:51:17.723Z,32.80
2018-02-21T11:54:41.752Z,33.83
2018-02-21T11:58:05.025Z,34.10
2018-02-21T12:01:28.288Z,33.27
2018-02-21T12:04:51.648Z,27.87
2018-02-21T12:08:15.046Z,28.20
2018-02-21T12:11:39.144Z,32.03
2018-02-21T12:15:03.260Z,32.17
2018-02-21T12:18:26.540Z,29.13
2018-02-21T12:21:50.670Z,26.57
2018-02-21T12:25:14.038Z,27.60
2018-02-21T12:28:37.400Z,24.27
2018-02-21T12:32:01.664Z,25.87
2018-02-21T12:35:25.779Z,27.43
2018-02-21T12:38:54.637Z,27.70
2018-02-21T12:42:18.004Z,24.63
2018-02-21T12:45:41.290Z,25.90
2018-02-21T12:49:05.318Z,30.93
2018-02-21T12:52:29.449Z,27.70
2018-02-21T12:55:53.485Z,29.93
2018-02-21T12:59:16.996Z,31.50
2018-02-21T13:02:40.799Z,34.20
2018-02-21T13:06:04.930Z,32.67
2018-02-21T13:09:28.968Z,35.97
2018-02-21T13:12:53.006Z,35.67
2018-02-21T13:16:17.048Z,31.40
2018-02-21T13:19:41.169Z,34.97
2018-02-21T13:23:04.455Z,34.93
2018-02-21T13:26:28.490Z,31.67
2018-02-21T13:29:52.614Z,33.33
2018-02-21T13:33:15.891Z,31.27
2018-02-21T13:36:39.949Z,37.30
2018-02-21T13:40:03.224Z,34.23
2018-02-21T13:43:26.504Z,36.00
2018-02-21T13:46:49.803Z,31.43
2018-02-21T13:50:13.088Z,29.87
2018-02-21T13:53:36.356Z,33.07
2018-02-21T13:56:59.729Z,30.33
2018-02-21T14:00:23.047Z,33.37
2018-02-21T14:03:46.364Z,31.43
2018-02-21T14:07:09.683Z,34.37
2018-02-21T14:10:33.063Z,31.83
2018-02-21T14:13:57.101Z,29.93
2018-02-21T14:17:21.216Z,39.80
2018-02-21T14:20:44.546Z,40.40
2018-02-21T14:24:07.835Z,35.43
2018-02-21T14:27:31.945Z,40.80
2018-02-21T14:30:55.217Z,38.00
2018-02-21T14:34:18.609Z,35.43
2018-02-21T14:37:43.931Z,42.37
2018-02-21T14:41:07.191Z,42.83
2018-02-21T14:44:33.673Z,38.43
2018-02-21T14:47:58.994Z,45.03
2018-02-21T14:51:23.149Z,47.17
2018-02-21T14:54:48.240Z,42.70
2018-02-21T14:58:12.366Z,42.00
2018-02-21T15:01:35.655Z,44.10
2018-02-21T15:04:59.937Z,44.17
2018-02-21T15:08:24.992Z,48.27
2018-02-21T15:11:48.350Z,43.13
2018-02-21T15:15:11.632Z,45.57
2018-02-21T15:18:35.009Z,36.00
2018-02-21T15:21:59.067Z,46.13
2018-02-21T15:25:22.388Z,44.27
2018-02-21T15:28:45.663Z,44.40
2018-02-21T15:32:08.994Z,48.23
2018-02-21T15:35:32.249Z,43.10
2018-02-21T15:38:55.580Z,49.90
2018-02-21T15:42:18.866Z,48.20
2018-02-21T15:45:42.133Z,46.73
2018-02-21T15:49:06.183Z,50.97
2018-02-21T15:52:29.531Z,48.70
2018-02-21T15:55:53.608Z,54.33
2018-02-21T15:59:16.870Z,56.17
2018-02-21T16:02:40.193Z,46.03
2018-02-21T16:06:03.511Z,48.87
2018-02-21T16:09:26.755Z,46.03
2018-02-21T16:12:50.101Z,45.27
2018-02-21T16:16:14.141Z,49.63
2018-02-21T16:19:38.182Z,48.53
2018-02-21T16:23:02.213Z,47.30
2018-02-21T16:26:26.339Z,46.57
2018-02-21T16:29:49.615Z,47.47
2018-02-21T16:33:12.893Z,48.77
2018-02-21T16:36:37.019Z,52.47
2018-02-21T16:40:00.336Z,47.87
2018-02-21T16:43:23.613Z,52.33
2018-02-21T16:46:47.743Z,52.03
2018-02-21T16:50:11.013Z,50.03
2018-02-21T16:53:35.149Z,51.47
2018-02-21T16:56:58.429Z,48.07
2018-02-21T17:00:22.482Z,52.73
2018-02-21T17:03:45.755Z,50.30
2018-02-21T17:07:09.142Z,49.13
2018-02-21T17:10:32.425Z,52.93
2018-02-21T17:13:56.550Z,53.73
2018-02-21T17:17:19.826Z,55.87
2018-02-21T17:20:44.920Z,49.27
2018-02-21T17:24:08.300Z,52.43
2018-02-21T17:27:31.617Z,52.70
2018-02-21T17:30:55.759Z,51.10
2018-02-21T17:34:19.075Z,52.03
2018-02-21T17:37:42.354Z,53.23
2018-02-21T17:41:12.051Z,52.83
2018-02-21T17:44:35.459Z,52.90
2018-02-21T17:47:58.703Z,51.30
2018-02-21T17:51:22.072Z,52.80
2018-02-21T17:54:45.345Z,55.53
2018-02-21T17:58:09.382Z,51.87
2018-02-21T18:01:33.419Z,54.40
2018-02-21T18:04:57.447Z,51.50
2018-02-21T18:08:21.583Z,51.17
2018-02-21T18:11:44.837Z,53.70
2018-02-21T18:15:08.113Z,51.83
2018-02-21T18:18:31.391Z,51.73
2018-02-21T18:21:55.481Z,52.20
2018-02-21T18:25:19.521Z,51.50
2018-02-21T18:28:43.604Z,51.70
2018-02-21T18:32:07.671Z,51.27
2018-02-21T18:43:26.409Z,52.60
2018-02-21T18:46:49.829Z,54.87
2018-02-21T18:50:13.135Z,49.80
2018-02-21T18:53:36.444Z,48.00
2018-02-21T18:56:59.849Z,55.93
2018-02-21T19:00:23.922Z,52.40
2018-02-21T19:03:47.207Z,52.13
2018-02-21T19:07:11.283Z,53.00
2018-02-21T19:10:35.614Z,46.67
2018-02-21T19:13:58.917Z,51.43
2018-02-21T19:17:22.174Z,48.57
2018-02-21T19:20:46.449Z,55.33
2018-02-21T19:24:10.584Z,49.07
2018-02-21T19:27:33.952Z,47.93
2018-02-21T19:30:57.227Z,53.60
2018-02-21T19:34:21.413Z,52.97
2018-02-21T19:37:45.475Z,52.63
2018-02-21T19:41:08.739Z,51.87
2018-02-21T19:44:33.327Z,51.50
2018-02-21T19:47:57.485Z,57.97
2018-02-21T19:51:20.801Z,55.00
2018-02-21T19:54:44.111Z,56.40
2018-02-21T19:58:07.474Z,53.43
2018-02-21T20:01:31.602Z,55.77
2018-02-21T20:04:54.973Z,52.13
2018-02-21T20:08:19.112Z,53.93
2018-02-21T20:11:42.478Z,51.20
2018-02-21T20:15:06.562Z,57.80
2018-02-21T20:18:29.937Z,54.87
2018-02-21T20:21:53.259Z,56.10
2018-02-21T20:25:16.565Z,53.13
2018-02-21T20:28:40.298Z,50.87
2018-02-21T20:32:03.595Z,57.53
2018-02-21T20:35:26.921Z,56.20
2018-02-21T20:38:50.235Z,60.23
2018-02-21T20:42:13.521Z,54.87
2018-02-21T20:45:36.832Z,49.57
2018-02-21T20:49:00.219Z,51.60
2018-02-21T20:52:23.518Z,58.47
2018-02-21T20:55:46.834Z,53.03
2018-02-21T20:59:10.146Z,57.87
2018-02-21T21:02:34.288Z,58.33
2018-02-21T21:05:57.632Z,60.63
2018-02-21T21:09:20.946Z,58.90
2018-02-21T21:12:44.320Z,56.97
2018-02-21T21:16:08.461Z,58.87
2018-02-21T21:19:31.774Z,55.50
2018-02-21T21:22:55.146Z,59.67
2018-02-21T21:26:18.431Z,57.67
2018-02-21T21:29:42.506Z,54.60
2018-02-21T21:33:05.800Z,56.20
2018-02-21T21:36:29.067Z,54.23
2018-02-21T21:39:52.411Z,50.00
2018-02-21T21:43:15.785Z,55.13
2018-02-21T21:46:39.829Z,55.70
2018-02-21T21:50:04.015Z,54.10
2018-02-21T21:53:28.027Z,50.13
2018-02-21T21:56:51.291Z,52.47
2018-02-21T22:00:14.626Z,53.83
2018-02-21T22:03:37.933Z,57.20
2018-02-21T22:07:01.240Z,57.23
2018-02-21T22:10:24.555Z,51.07
2018-02-21T22:13:47.865Z,51.47
2018-02-21T22:17:11.900Z,51.40
2018-02-21T22:20:36.120Z,56.57
2018-02-21T22:23:59.501Z,56.73
2018-02-21T22:27:22.796Z,53.03
2018-02-21T22:30:46.061Z,52.73
2018-02-21T22:34:09.337Z,55.23
2018-02-21T22:37:32.721Z,57.07
2018-02-21T22:40:56.089Z,55.40
2018-02-21T22:44:19.383Z,55.20
2018-02-21T22:47:43.483Z,51.97
2018-02-21T22:51:06.816Z,48.93
2018-02-21T22:54:30.116Z,51.30
2018-02-21T22:57:53.455Z,44.43
2018-02-21T23:01:16.788Z,53.73
2018-02-21T23:04:40.872Z,53.23
2018-02-21T23:08:05.075Z,40.77
2018-02-21T23:11:29.122Z,49.37
2018-02-21T23:14:52.430Z,49.73
2018-02-21T23:18:16.521Z,46.10
2018-02-21T23:21:39.826Z,48.60
2018-02-21T23:25:04.223Z,47.50
2018-02-21T23:28:27.547Z,45.03
2018-02-21T23:31:50.856Z,44.73
2018-02-21T23:35:14.983Z,46.23
2018-02-21T23:38:38.259Z,48.73
2018-02-21T23:42:04.730Z,48.77
2018-02-21T23:45:28.113Z,50.00
2018-02-21T23:56:51.548Z,46.07
